^^
Station Historical Data
Daily Summary for May 17, 2017 Units:  English    Metric   Both
« Previous Day
Next Day »
Daily Weekly Monthly Yearly Custom
  High: Low: Average:
Temperature: 90.4 °F 55.6 °F 75.7 °F
Dew Point: 65.4 °F 41.9 °F 57.7 °F
Humidity: 79% 41% 55%
Wind Speed: 7.0mph 0.0mph 2.7mph
Wind Gust: 20.0mph - -
Wind- - SSW
Pressure: 30.03 in 29.89 in -
Precipitation: 0.00 in    
Historical Graphs
 
 
Tabular Data for May 17, 2017
Time Temperature Dew Point Pressure Wind Wind Speed Wind Gust Humidity Rainfall Rate (Hourly) Conditions
00:00 60.7 °F 44.9 °F 30.00 in Calm     56% 0.00 in CLR
00:15 61.4 °F 43.6 °F 30.00 in Calm     52% 0.00 in CLR
00:30 62.4 °F 42.4 °F 30.00 in Calm     48% 0.00 in CLR
00:45 62.6 °F 42.6 °F 30.00 in Calm     48% 0.00 in CLR
01:00 61.8 °F 41.9 °F 29.99 in Calm     48% 0.00 in CLR
02:15 58.2 °F 46.1 °F 30.00 in Calm   2.0 mph 64% 0.00 in CLR
02:30 58.8 °F 45.8 °F 29.99 in Calm     62% 0.00 in CLR
02:45 58.1 °F 46.0 °F 30.00 in Calm     64% 0.00 in CLR
03:00 57.3 °F 46.4 °F 30.00 in Calm     67% 0.00 in CLR
03:15 56.8 °F 46.7 °F 30.00 in Calm     69% 0.00 in CLR
03:30 57.4 °F 46.9 °F 30.00 in Calm   1.0 mph 68% 0.00 in CLR
03:45 58.8 °F 47.1 °F 30.00 in Calm     65% 0.00 in CLR
04:00 60.5 °F 47.9 °F 30.00 in Calm   2.0 mph 63% 0.00 in CLR
04:15 60.9 °F 48.2 °F 30.00 in Calm   1.0 mph 63% 0.00 in CLR
04:30 60.3 °F 48.5 °F 30.01 in Calm     65% 0.00 in CLR
04:45 58.9 °F 48.4 °F 30.01 in Calm     68% 0.00 in CLR
05:00 58.9 °F 48.4 °F 30.01 in Calm     68% 0.00 in CLR
05:15 57.8 °F 48.1 °F 30.01 in Calm     70% 0.00 in FEW
05:30 57.5 °F 48.9 °F 30.02 in Calm     73% 0.00 in FEW
05:45 56.8 °F 48.6 °F 30.02 in Calm     74% 0.00 in FEW
06:00 55.6 °F 48.5 °F 30.01 in Calm     77% 0.00 in FEW
06:15 56.6 °F 49.8 °F 30.02 in Calm     78% 0.00 in CLR
06:30 56.4 °F 50.0 °F 30.02 in Calm     79% 0.00 in CLR
06:45 57.4 °F 50.9 °F 30.02 in Calm     79% 0.00 in CLR
07:00 59.3 °F 51.7 °F 30.02 in Calm   2.0 mph 76% 0.00 in CLR
07:15 60.0 °F 52.4 °F 30.02 in Calm   1.0 mph 76% 0.00 in CLR
07:30 61.4 °F 52.7 °F 30.03 in Calm   2.0 mph 73% 0.00 in CLR
07:45 63.0 °F 53.5 °F 30.02 in SSW 1.0 mph 2.0 mph 71% 0.00 in CLR
08:00 65.4 °F 54.2 °F 30.02 in SSW 2.0 mph 5.0 mph 67% 0.00 in CLR
08:15 66.8 °F 54.7 °F 30.02 in Calm   8.0 mph 65% 0.00 in CLR
08:30 68.1 °F 55.5 °F 30.02 in SW 1.0 mph 6.0 mph 64% 0.00 in CLR
08:45 68.8 °F 55.2 °F 30.02 in South 1.0 mph 8.0 mph 62% 0.00 in CLR
09:00 69.1 °F 56.4 °F 30.02 in SW 1.0 mph 9.0 mph 64% 0.00 in CLR
09:15 70.2 °F 56.6 °F 30.02 in SSW 2.0 mph 8.0 mph 62% 0.00 in CLR
09:30 71.4 °F 57.2 °F 30.01 in SSW 5.0 mph 10.0 mph 61% 0.00 in CLR
09:45 72.7 °F 57.6 °F 30.01 in South 3.0 mph 9.0 mph 59% 0.00 in CLR
10:00 73.7 °F 57.5 °F 30.01 in SW 7.0 mph 12.0 mph 57% 0.00 in CLR
10:15 75.0 °F 58.7 °F 30.00 in SSW 5.0 mph 10.0 mph 57% 0.00 in CLR
10:30 76.2 °F 58.8 °F 30.00 in South 3.0 mph 12.0 mph 55% 0.00 in CLR
10:45 77.5 °F 59.5 °F 30.00 in SW 2.0 mph 12.0 mph 54% 0.00 in CLR
11:00 78.8 °F 59.7 °F 30.00 in SW 5.0 mph 12.0 mph 52% 0.00 in CLR
11:15 80.3 °F 61.1 °F 29.99 in SSW 3.0 mph 12.0 mph 52% 0.00 in FEW
11:30 81.5 °F 61.1 °F 29.99 in South 3.0 mph 12.0 mph 50% 0.00 in FEW
11:45 82.9 °F 61.7 °F 29.98 in SSW 3.0 mph 10.0 mph 49% 0.00 in FEW
12:00 83.3 °F 61.6 °F 29.97 in SW 6.0 mph 12.0 mph 48% 0.00 in FEW
12:15 84.6 °F 62.1 °F 29.97 in SSW 3.0 mph 10.0 mph 47% 0.00 in FEW
12:30 85.3 °F 62.2 °F 29.96 in SSW 3.0 mph 12.0 mph 46% 0.00 in FEW
12:45 86.1 °F 62.9 °F 29.95 in SSW 7.0 mph 12.0 mph 46% 0.00 in FEW
13:00 86.1 °F 62.9 °F 29.95 in SSW 6.0 mph 15.0 mph 46% 0.00 in FEW
13:15 87.5 °F 64.1 °F 29.95 in WSW 3.0 mph 15.0 mph 46% 0.00 in FEW
13:30 87.9 °F 63.3 °F 29.94 in SSW 6.0 mph 10.0 mph 44% 0.00 in FEW
13:45 87.7 °F 63.1 °F 29.94 in SW 5.0 mph 15.0 mph 44% 0.00 in FEW
14:00 87.9 °F 63.3 °F 29.94 in SW 7.0 mph 12.0 mph 44% 0.00 in FEW
14:15 88.7 °F 63.3 °F 29.93 in SSW 5.0 mph 16.0 mph 43% 0.00 in FEW
14:30 88.7 °F 64.0 °F 29.92 in SW 5.0 mph 16.0 mph 44% 0.00 in FEW
14:45 88.8 °F 62.7 °F 29.92 in SSW 7.0 mph 17.0 mph 42% 0.00 in FEW
15:00 89.0 °F 63.6 °F 29.91 in SW 6.0 mph 16.0 mph 43% 0.00 in FEW
15:15 89.5 °F 62.7 °F 29.91 in SW 6.0 mph 14.0 mph 41% 0.00 in CLR
15:30 89.7 °F 63.5 °F 29.90 in SSW 7.0 mph 12.0 mph 42% 0.00 in CLR
15:45 89.7 °F 63.6 °F 29.90 in SSW 5.0 mph 15.0 mph 42% 0.00 in CLR
16:00 90.0 °F 63.8 °F 29.89 in SSE 5.0 mph 16.0 mph 42% 0.00 in CLR
16:15 90.4 °F 63.5 °F 29.89 in SW 6.0 mph 12.0 mph 41% 0.00 in CLR
16:30 90.4 °F 63.5 °F 29.89 in SSW 5.0 mph 12.0 mph 41% 0.00 in CLR
16:45 90.3 °F 64.1 °F 29.89 in WSW 5.0 mph 16.0 mph 42% 0.00 in CLR
17:00 90.4 °F 63.5 °F 29.89 in SSW 6.0 mph 20.0 mph 41% 0.00 in CLR
17:15 90.4 °F 63.5 °F 29.89 in SSW 6.0 mph 12.0 mph 41% 0.00 in CLR
17:30 90.1 °F 63.9 °F 29.89 in SSW 6.0 mph 13.0 mph 42% 0.00 in CLR
17:45 90.3 °F 64.1 °F 29.89 in SSW 3.0 mph 13.0 mph 42% 0.00 in CLR
18:00 90.4 °F 63.5 °F 29.89 in SW 5.0 mph 14.0 mph 41% 0.00 in CLR
18:15 90.1 °F 63.2 °F 29.89 in SSW 6.0 mph 14.0 mph 41% 0.00 in CLR
18:30 89.6 °F 63.5 °F 29.89 in SSW 2.0 mph 12.0 mph 42% 0.00 in CLR
18:45 89.3 °F 63.2 °F 29.89 in SW 5.0 mph 12.0 mph 42% 0.00 in CLR
19:00 88.4 °F 63.1 °F 29.90 in SW 3.0 mph 12.0 mph 43% 0.00 in CLR
19:15 87.9 °F 63.9 °F 29.90 in SSW 3.0 mph 8.0 mph 45% 0.00 in CLR
19:30 86.7 °F 64.0 °F 29.90 in SSW 1.0 mph 12.0 mph 47% 0.00 in CLR
19:45 85.5 °F 63.6 °F 29.90 in South 3.0 mph 12.0 mph 48% 0.00 in CLR
20:15 84.1 °F 62.9 °F 29.91 in SSW 1.0 mph 12.0 mph 49% 0.00 in CLR
20:30 83.5 °F 62.9 °F 29.91 in SSW 3.0 mph 10.0 mph 50% 0.00 in CLR
20:45 82.9 °F 62.9 °F 29.91 in SSW 2.0 mph 6.0 mph 51% 0.00 in CLR
21:00 82.4 °F 63.0 °F 29.91 in SSW 1.0 mph 7.0 mph 52% 0.00 in CLR
21:15 82.1 °F 63.3 °F 29.92 in SW 3.0 mph 8.0 mph 53% 0.00 in CLR
21:30 82.3 °F 63.5 °F 29.92 in South 5.0 mph 10.0 mph 53% 0.00 in CLR
21:45 82.5 °F 64.2 °F 29.93 in SW 3.0 mph 11.0 mph 54% 0.00 in CLR
22:00 82.2 °F 64.4 °F 29.93 in SSW 3.0 mph 7.0 mph 55% 0.00 in CLR
22:15 81.5 °F 64.8 °F 29.93 in SW 3.0 mph 8.0 mph 57% 0.00 in FEW
22:30 80.8 °F 64.7 °F 29.94 in SSW 5.0 mph 8.0 mph 58% 0.00 in FEW
22:45 80.5 °F 65.4 °F 29.93 in SSW 1.0 mph 9.0 mph 60% 0.00 in FEW
23:00 80.6 °F 64.9 °F 29.93 in SSW 3.0 mph 8.0 mph 59% 0.00 in FEW
23:15 80.8 °F 65.1 °F 29.93 in SSW 5.0 mph 9.0 mph 59% 0.00 in FEW
23:30 80.8 °F 65.1 °F 29.93 in SSW 5.0 mph 9.0 mph 59% 0.00 in FEW
23:45 80.8 °F 65.1 °F 29.93 in SW 3.0 mph 10.0 mph 59% 0.00 in FEW
TarryTown NY Weather
Compliments of Weather Underground - 1.5 mb